Time;durP1;ratioP1;P1;durP2;ratioP2;P2;SDS_P1;SDS_P2;PMS_P1;PMS_P2;Temp;Humidity;BMP_temperature;BMP_pressure;BME280_temperature;BME280_humidity;BME280_pressure;Samples;Min_cycle;Max_cycle;Signal;HPM_P1;HPM_P2
2022/01/14 00:00:57;;;;;;;72.15;24.98;;;;;;;5.32;100.00;103268.41;5009307;28;20036;-84
2022/01/14 00:03:23;;;;;;;63.67;21.50;;;;;;;5.19;100.00;103246.88;5022715;28;20472;-82
2022/01/14 00:06:08;;;;;;;124.25;35.58;;;;;;;5.28;100.00;103268.56;5030870;28;20078;-86
2022/01/14 00:08:34;;;;;;;128.00;39.45;;;;;;;5.25;100.00;103263.41;5031932;28;20032;-83
2022/01/14 00:11:01;;;;;;;198.25;54.25;;;;;;;5.23;100.00;103264.41;5029938;28;20474;-83
2022/01/14 00:14:21;;;;;;;163.00;51.90;;;;;;;5.15;100.00;103251.47;5041258;28;20474;-82
2022/01/14 00:16:12;;;;;;;80.43;28.52;;;;;;;5.21;100.00;103256.50;5040911;28;20044;-82
2022/01/14 00:18:38;;;;;;;104.13;35.60;;;;;;;5.24;100.00;103260.81;5015079;28;20016;-82
2022/01/14 00:21:04;;;;;;;75.57;26.65;;;;;;;5.23;100.00;103253.75;5041951;28;20058;-82
2022/01/14 00:23:34;;;;;;;78.85;30.67;;;;;;;5.20;100.00;103253.91;5029912;28;20032;-83
2022/01/14 00:34:10;;;;;;;40.40;16.63;;;;;;;5.17;100.00;103246.94;5026839;28;20346;-82
2022/01/14 00:36:47;;;;;;;50.50;19.63;;;;;;;5.21;100.00;103240.50;5043247;28;20097;-86
2022/01/14 00:39:14;;;;;;;48.67;18.05;;;;;;;5.25;100.00;103234.06;5020823;28;20063;-86
2022/01/14 00:41:41;;;;;;;43.47;17.58;;;;;;;5.24;100.00;103227.00;5035004;28;20382;-84
2022/01/14 00:44:11;;;;;;;44.58;18.33;;;;;;;5.26;100.00;103224.25;5029278;28;20029;-81
2022/01/14 00:46:38;;;;;;;56.42;19.73;;;;;;;5.26;100.00;103218.91;5022057;28;20397;-85
2022/01/14 00:49:04;;;;;;;40.40;16.65;;;;;;;5.19;100.00;103213.03;5040782;28;20329;-83
2022/01/14 00:51:33;;;;;;;37.50;15.60;;;;;;;5.15;100.00;103213.28;5023241;28;20062;-84
2022/01/14 00:53:58;;;;;;;43.65;18.67;;;;;;;5.14;100.00;103219.56;5024949;28;20025;-83
2022/01/14 01:01:35;;;;;;;30.13;12.35;;;;;;;5.36;100.00;103213.94;5046199;28;20028;-82
2022/01/14 01:04:00;;;;;;;26.38;10.52;;;;;;;5.38;100.00;103207.59;5031318;28;20090;-82
2022/01/14 01:06:26;;;;;;;26.17;11.95;;;;;;;5.39;100.00;103208.44;5024950;28;20025;-82
2022/01/14 01:08:56;;;;;;;26.95;11.63;;;;;;;5.32;100.00;103189.25;5039435;28;20836;-81
2022/01/14 01:11:31;;;;;;;31.05;14.55;;;;;;;5.35;100.00;103207.75;5009938;28;20487;-82
2022/01/14 01:14:10;;;;;;;62.97;23.05;;;;;;;5.25;100.00;103195.84;5019311;28;20029;-81
2022/01/14 01:16:35;;;;;;;49.58;20.90;;;;;;;5.25;100.00;103207.38;5038694;28;20082;-83
2022/01/14 01:19:01;;;;;;;39.13;17.42;;;;;;;5.24;100.00;103211.00;5033750;28;20037;-85
2022/01/14 01:21:27;;;;;;;63.67;24.27;;;;;;;5.16;100.00;103197.22;5027253;28;20486;-86
2022/01/14 01:23:52;;;;;;;75.50;28.90;;;;;;;5.15;100.00;103208.81;5039624;28;20044;-86
2022/01/14 01:26:29;;;;;;;45.70;16.02;;;;;;;5.14;100.00;103196.41;5061112;28;20031;-82
2022/01/14 01:29:04;;;;;;;36.58;14.75;;;;;;;5.10;100.00;103178.84;5029545;28;20052;-82
2022/01/14 01:31:40;;;;;;;37.03;13.15;;;;;;;4.87;100.00;103153.41;5032488;28;20441;-81
2022/01/14 01:34:07;;;;;;;25.60;12.10;;;;;;;5.02;100.00;103187.25;5013624;28;20040;-83
2022/01/14 01:36:33;;;;;;;24.98;11.55;;;;;;;4.99;100.00;103175.88;5039349;28;20044;-83
2022/01/14 01:38:59;;;;;;;29.45;12.15;;;;;;;4.97;100.00;103167.94;5026343;28;20995;-85
2022/01/14 01:41:25;;;;;;;28.15;11.02;;;;;;;4.94;100.00;103164.59;5017296;28;20040;-82
2022/01/14 01:43:53;;;;;;;32.55;12.93;;;;;;;4.90;100.00;103157.72;5004701;28;20443;-84
2022/01/14 01:46:20;;;;;;;34.40;12.75;;;;;;;4.82;100.00;103150.13;5041309;28;20028;-82
2022/01/14 01:48:47;;;;;;;35.20;12.95;;;;;;;4.73;100.00;103138.09;5039650;28;20483;-86
2022/01/14 01:51:13;;;;;;;25.48;11.07;;;;;;;4.73;100.00;103134.59;5013882;28;20141;-82
2022/01/14 01:53:39;;;;;;;38.15;15.00;;;;;;;4.74;100.00;103133.66;5023498;28;22292;-80
2022/01/14 01:56:05;;;;;;;31.15;13.18;;;;;;;4.76;100.00;103134.41;5022694;28;20066;-82
2022/01/14 01:58:31;;;;;;;28.98;12.93;;;;;;;4.72;100.00;103136.38;5020708;28;20040;-84
2022/01/14 02:00:57;;;;;;;37.58;14.98;;;;;;;4.59;100.00;103119.31;5023902;28;20461;-83
2022/01/14 02:03:22;;;;;;;37.33;14.85;;;;;;;4.65;100.00;103131.44;5011446;28;20263;-83
2022/01/14 02:05:49;;;;;;;43.58;15.38;;;;;;;4.59;100.00;103112.16;5043357;28;20033;-82
2022/01/14 02:08:14;;;;;;;36.45;16.10;;;;;;;4.71;100.00;103126.69;5014785;28;20494;-84
2022/01/14 02:10:40;;;;;;;41.85;15.90;;;;;;;4.71;100.00;103126.69;5026251;28;20094;-82
2022/01/14 02:13:06;;;;;;;32.63;15.13;;;;;;;4.69;100.00;103133.03;5006672;28;20386;-85
2022/01/14 02:23:54;;;;;;;36.45;14.77;;;;;;;4.60;100.00;103134.34;5046843;28;20036;-82
2022/01/14 02:26:21;;;;;;;36.25;14.93;;;;;;;4.49;100.00;103123.38;5018512;28;20031;-85
2022/01/14 02:28:48;;;;;;;38.30;14.07;;;;;;;4.51;100.00;103124.16;5041179;28;20032;-85
2022/01/14 02:31:14;;;;;;;30.65;13.57;;;;;;;4.53;100.00;103132.97;5009569;28;20032;-83
2022/01/14 02:33:39;;;;;;;33.92;14.48;;;;;;;4.47;100.00;103120.78;5044874;28;20039;-85
2022/01/14 02:36:05;;;;;;;36.67;16.02;;;;;;;4.51;100.00;103125.03;5035699;28;20055;-82
2022/01/14 02:38:32;;;;;;;37.50;14.60;;;;;;;4.21;100.00;103075.97;5050588;28;20032;-83
2022/01/14 02:40:58;;;;;;;33.88;13.93;;;;;;;4.48;100.00;103132.31;5046475;28;20331;-83
2022/01/14 02:43:28;;;;;;;34.47;13.95;;;;;;;4.47;100.00;103133.25;5047457;28;20463;-82
2022/01/14 02:45:56;;;;;;;35.80;14.27;;;;;;;4.46;100.00;103134.19;5012003;28;20146;-80
2022/01/14 02:48:25;;;;;;;39.83;15.27;;;;;;;4.48;100.00;103133.19;5017405;28;20441;-82
2022/01/14 02:51:15;;;;;;;31.38;14.25;;;;;;;4.47;100.00;103136.75;5015825;28;20633;-83
2022/01/14 02:56:07;;;;;;;30.88;14.43;;;;;;;4.49;100.00;103128.72;5029117;28;20044;-81
2022/01/14 02:58:34;;;;;;;38.20;15.55;;;;;;;4.47;100.00;103130.59;5028077;28;20052;-83
2022/01/14 03:01:09;;;;;;;31.95;13.98;;;;;;;4.39;100.00;103115.88;5012530;28;20501;-85
2022/01/14 03:03:35;;;;;;;37.58;13.70;;;;;;;4.46;100.00;103135.06;5045321;28;20020;-84
2022/01/14 03:06:02;;;;;;;34.58;13.32;;;;;;;4.37;100.00;103120.41;5042278;28;20036;-81
2022/01/14 03:08:28;;;;;;;33.65;14.05;;;;;;;4.44;100.00;103123.59;5011081;28;20072;-82
2022/01/14 03:11:00;;;;;;;37.22;15.40;;;;;;;4.47;100.00;103133.25;5024059;28;20430;-82
2022/01/14 03:13:26;;;;;;;35.95;14.00;;;;;;;4.44;100.00;103133.41;5040410;28;20049;-85
2022/01/14 03:15:54;;;;;;;33.08;14.27;;;;;;;4.46;100.00;103134.19;5032379;28;20031;-85
2022/01/14 03:18:32;;;;;;;42.83;15.13;;;;;;;4.47;100.00;103135.91;5006338;28;20440;-83
2022/01/14 03:21:12;;;;;;;31.77;12.27;;;;;;;4.48;100.00;103130.53;5023406;28;20564;-82
2022/01/14 03:23:48;;;;;;;41.42;15.82;;;;;;;4.49;100.00;103126.03;5016876;28;20058;-86
2022/01/14 03:26:16;;;;;;;39.65;14.20;;;;;;;4.53;100.00;103117.81;5045557;28;20029;-82
2022/01/14 03:28:42;;;;;;;37.25;14.63;;;;;;;4.51;100.00;103119.69;5007913;28;20028;-82
2022/01/14 03:31:08;;;;;;;36.42;15.13;;;;;;;4.45;100.00;103112.03;5050617;28;20036;-82
2022/01/14 03:33:35;;;;;;;41.15;13.77;;;;;;;4.52;100.00;103110.75;5012291;28;20048;-82
2022/01/14 03:36:01;;;;;;;36.70;15.23;;;;;;;4.46;100.00;103103.09;5027802;28;20066;-84
2022/01/14 03:38:27;;;;;;;45.15;15.50;;;;;;;4.21;100.00;103054.66;5029592;28;20482;-85
2022/01/14 03:40:53;;;;;;;45.70;15.80;;;;;;;4.48;100.00;103095.03;5024634;28;20059;-82
2022/01/14 03:43:18;;;;;;;36.15;15.20;;;;;;;4.52;100.00;103091.25;5024140;28;20470;-85
2022/01/14 03:45:45;;;;;;;36.47;12.90;;;;;;;4.56;100.00;103091.03;5029921;28;20037;-81
2022/01/14 03:48:11;;;;;;;41.42;15.10;;;;;;;4.54;100.00;103081.38;5052816;28;20596;-81
2022/01/14 03:50:37;;;;;;;33.85;13.07;;;;;;;4.54;100.00;103081.38;5045802;28;20032;-84
2022/01/14 03:53:03;;;;;;;36.88;13.32;;;;;;;4.57;100.00;103094.53;5030361;28;20521;-85
2022/01/14 03:55:29;;;;;;;33.45;12.40;;;;;;;4.55;100.00;103094.63;5041236;28;20043;-83
2022/01/14 03:57:55;;;;;;;35.22;12.77;;;;;;;4.48;100.00;103071.91;5020396;28;20036;-81
2022/01/14 04:00:21;;;;;;;39.97;15.02;;;;;;;4.52;100.00;103089.44;5024088;28;20085;-82
2022/01/14 04:02:47;;;;;;;19.90;9.00;;;;;;;4.53;100.00;103082.34;5030243;28;20040;-81
2022/01/14 04:05:13;;;;;;;35.78;13.88;;;;;;;4.53;100.00;103072.53;5006329;28;20101;-81
2022/01/14 04:07:39;;;;;;;42.50;14.35;;;;;;;4.51;100.00;103068.22;5008117;28;20033;-82
2022/01/14 04:10:10;;;;;;;37.85;14.82;;;;;;;4.54;100.00;103065.41;5027038;28;20041;-81
2022/01/14 04:17:54;;;;;;;39.97;14.18;;;;;;;4.48;100.00;103049.75;5036646;28;20104;-83
2022/01/14 04:20:20;;;;;;;36.88;14.52;;;;;;;4.50;100.00;103047.84;5042493;28;20078;-81
2022/01/14 04:22:48;;;;;;;33.50;13.82;;;;;;;4.51;100.00;103052.25;5008561;28;20070;-82
2022/01/14 04:25:14;;;;;;;36.35;13.48;;;;;;;4.53;100.00;103045.03;5027446;28;20807;-84
2022/01/14 04:27:40;;;;;;;26.23;11.05;;;;;;;4.49;100.00;103046.97;5053864;28;20025;-83
2022/01/14 04:30:06;;;;;;;28.23;12.43;;;;;;;4.47;100.00;103042.66;5026737;28;20031;-82
2022/01/14 04:32:32;;;;;;;34.92;12.77;;;;;;;4.47;100.00;103035.53;5046895;28;20029;-82
2022/01/14 04:34:57;;;;;;;29.00;13.02;;;;;;;4.41;100.00;103023.41;5026268;28;20028;-85
2022/01/14 04:37:23;;;;;;;35.25;12.90;;;;;;;4.48;100.00;103031.94;5008944;28;20386;-86
2022/01/14 04:39:49;;;;;;;28.33;11.07;;;;;;;4.44;100.00;103021.53;5057257;28;20056;-84
2022/01/14 04:42:15;;;;;;;32.55;12.40;;;;;;;4.45;100.00;103028.59;5029306;28;20032;-82
2022/01/14 04:44:41;;;;;;;31.17;13.07;;;;;;;4.39;100.00;103025.31;5022746;28;20379;-85
2022/01/14 04:47:17;;;;;;;31.58;12.15;;;;;;;4.41;100.00;103023.41;5041557;28;20037;-85
2022/01/14 04:49:43;;;;;;;21.85;8.60;;;;;;;4.29;100.00;103010.75;5012125;28;20040;-81
2022/01/14 04:52:08;;;;;;;25.58;10.00;;;;;;;4.34;100.00;103016.69;5021185;28;20024;-83
2022/01/14 04:54:35;;;;;;;23.67;10.10;;;;;;;4.33;100.00;103017.63;5043500;28;20059;-83
2022/01/14 04:57:01;;;;;;;29.35;11.32;;;;;;;4.38;100.00;103020.91;5011835;28;20029;-83
2022/01/14 04:59:27;;;;;;;31.63;11.98;;;;;;;4.25;100.00;102995.84;5046241;28;20040;-82
2022/01/14 05:01:54;;;;;;;28.75;11.98;;;;;;;4.42;100.00;103021.63;5020869;28;20040;-84
2022/01/14 05:04:19;;;;;;;27.23;10.75;;;;;;;4.44;100.00;103014.38;5010677;28;20032;-81
2022/01/14 05:06:49;;;;;;;32.92;12.02;;;;;;;4.44;100.00;103019.72;5022804;28;20037;-83
2022/01/14 05:09:26;;;;;;;26.00;9.52;;;;;;;4.44;100.00;103014.38;5056490;28;20024;-83
2022/01/14 05:11:57;;;;;;;14.70;6.95;;;;;;;4.40;100.00;103005.69;5024237;28;20533;-83
2022/01/14 05:14:23;;;;;;;24.33;8.40;;;;;;;4.37;100.00;103000.53;5023711;28;20052;-82
2022/01/14 05:16:49;;;;;;;21.88;9.40;;;;;;;4.39;100.00;102989.78;5025511;28;20040;-85
2022/01/14 05:19:15;;;;;;;27.63;10.00;;;;;;;4.45;100.00;102991.31;5037994;28;20066;-85
2022/01/14 05:21:41;;;;;;;29.88;11.63;;;;;;;4.44;100.00;102992.22;5052885;28;20028;-83
2022/01/14 05:24:07;;;;;;;22.08;8.88;;;;;;;4.44;100.00;103002.88;5008116;28;20556;-83
2022/01/14 05:26:33;;;;;;;35.05;12.73;;;;;;;4.38;100.00;102991.59;5025716;28;20036;-81
2022/01/14 05:28:58;;;;;;;25.08;10.45;;;;;;;4.34;100.00;102983.84;5008276;28;20092;-83
2022/01/14 05:31:46;;;;;;;16.17;6.60;;;;;;;4.38;100.00;102996.06;5027782;28;20430;-84
2022/01/14 05:34:12;;;;;;;27.75;10.15;;;;;;;4.36;100.00;102981.97;5024433;28;20292;-81
2022/01/14 05:36:38;;;;;;;23.08;10.25;;;;;;;4.40;100.00;102984.41;5007356;28;20036;-85
2022/01/14 05:39:04;;;;;;;22.00;9.98;;;;;;;4.41;100.00;102978.13;5022802;28;20059;-84
2022/01/14 05:41:30;;;;;;;27.13;9.63;;;;;;;4.36;100.00;102966.84;5041180;28;20052;-85
2022/01/14 05:43:56;;;;;;;21.02;9.40;;;;;;;4.43;100.00;102978.03;5039967;28;20502;-85
2022/01/14 05:46:21;;;;;;;25.13;10.13;;;;;;;4.29;100.00;102964.63;5016989;28;20407;-82
2022/01/14 05:48:47;;;;;;;24.55;9.95;;;;;;;4.38;100.00;102980.94;5011568;28;20462;-80
2022/01/14 05:51:13;;;;;;;29.02;10.77;;;;;;;4.34;100.00;102986.50;5011635;28;20040;-84
2022/01/14 05:53:38;;;;;;;23.35;9.13;;;;;;;4.32;100.00;102989.28;5043484;28;20111;-83
2022/01/14 05:56:04;;;;;;;24.25;9.93;;;;;;;4.32;100.00;102980.41;5011099;28;20102;-82
2022/01/14 05:58:30;;;;;;;17.98;7.22;;;;;;;4.25;100.00;102960.38;5030122;28;20036;-82
2022/01/14 06:00:58;;;;;;;20.23;9.15;;;;;;;4.35;100.00;102982.91;5043647;28;20475;-82
2022/01/14 06:03:23;;;;;;;29.52;10.20;;;;;;;4.29;100.00;102981.44;5041684;28;20031;-82
2022/01/14 06:05:49;;;;;;;16.35;6.68;;;;;;;4.22;100.00;102971.19;5029152;28;20033;-83
2022/01/14 06:08:15;;;;;;;22.13;9.23;;;;;;;4.32;100.00;102994.59;5038880;28;20043;-82
2022/01/14 06:10:40;;;;;;;22.98;10.32;;;;;;;4.29;100.00;102984.09;5031700;28;20994;-81
2022/01/14 06:13:06;;;;;;;20.45;8.27;;;;;;;4.29;100.00;102989.44;5013820;28;20403;-83
2022/01/14 06:15:32;;;;;;;25.73;8.25;;;;;;;4.29;100.00;102991.25;5045175;28;20032;-82
2022/01/14 06:17:58;;;;;;;20.92;7.80;;;;;;;4.30;100.00;102993.81;5020142;28;20119;-83
2022/01/14 06:20:23;;;;;;;23.42;9.52;;;;;;;4.17;100.00;102966.94;5031734;28;20470;-80
2022/01/14 06:22:49;;;;;;;23.17;9.07;;;;;;;4.30;100.00;102996.47;5030574;28;20036;-81
2022/01/14 06:25:15;;;;;;;24.65;9.15;;;;;;;4.30;100.00;102992.94;5048671;28;20040;-83
2022/01/14 06:27:41;;;;;;;22.35;8.93;;;;;;;4.28;100.00;102995.69;5066428;28;20367;-82
2022/01/14 06:30:07;;;;;;;19.63;7.55;;;;;;;4.26;100.00;103000.25;5043019;28;20040;-80
2022/01/14 06:32:41;;;;;;;20.83;9.38;;;;;;;4.11;100.00;102979.75;5020013;28;20063;-85
2022/01/14 06:35:13;;;;;;;20.63;9.88;;;;;;;4.18;100.00;102989.09;5036505;28;20419;-85
2022/01/14 06:37:40;;;;;;;23.13;8.95;;;;;;;4.28;100.00;103009.00;5039189;28;20076;-84
2022/01/14 06:40:07;;;;;;;16.60;7.95;;;;;;;4.20;100.00;102987.22;5024476;28;20487;-86
2022/01/14 06:42:33;;;;;;;23.02;7.78;;;;;;;4.21;100.00;102993.41;5034654;28;20025;-81
2022/01/14 06:44:58;;;;;;;20.40;8.57;;;;;;;4.21;100.00;102996.06;5046202;28;20103;-82
2022/01/14 06:47:25;;;;;;;18.73;8.82;;;;;;;4.15;100.00;102989.28;5029629;28;20131;-85
2022/01/14 06:49:50;;;;;;;21.77;8.13;;;;;;;4.15;100.00;102989.28;5039630;28;20028;-84
2022/01/14 06:52:17;;;;;;;22.50;9.20;;;;;;;4.02;100.00;102973.06;5040494;28;20324;-80
2022/01/14 06:54:43;;;;;;;23.45;8.68;;;;;;;4.13;100.00;102992.03;5047367;28;20025;-88
2022/01/14 06:57:08;;;;;;;20.25;8.32;;;;;;;4.03;100.00;102974.81;5010836;28;20036;-83
2022/01/14 06:59:34;;;;;;;23.88;8.35;;;;;;;4.12;100.00;102981.44;5015882;28;20072;-81
2022/01/14 07:02:00;;;;;;;19.73;7.50;;;;;;;4.09;100.00;102978.94;5015258;28;20043;-85
2022/01/14 07:04:32;;;;;;;16.98;5.35;;;;;;;4.12;100.00;102984.97;5042103;28;20032;-82
2022/01/14 07:06:57;;;;;;;23.20;9.05;;;;;;;4.06;100.00;102973.78;5039539;28;20051;-83
2022/01/14 07:09:23;;;;;;;18.08;7.60;;;;;;;4.05;100.00;102974.72;5009030;28;20036;-83
2022/01/14 07:11:57;;;;;;;17.25;7.40;;;;;;;4.06;100.00;102979.97;5024491;28;20060;-82
2022/01/14 07:14:23;;;;;;;15.18;6.32;;;;;;;4.09;100.00;102990.44;5028963;28;20482;-82
2022/01/14 07:16:49;;;;;;;19.27;8.73;;;;;;;4.01;100.00;102974.00;5025480;28;20028;-83
2022/01/14 07:19:17;;;;;;;24.60;8.45;;;;;;;4.05;100.00;102980.91;5013656;28;20036;-82
2022/01/14 07:21:43;;;;;;;22.10;7.25;;;;;;;3.84;100.00;102948.28;5016244;28;20119;-87
2022/01/14 07:24:10;;;;;;;20.23;7.63;;;;;;;3.96;100.00;102962.75;5026256;28;20043;-86
2022/01/14 07:26:36;;;;;;;21.50;8.98;;;;;;;4.02;100.00;102969.53;5048157;28;20036;-85
2022/01/14 07:29:02;;;;;;;18.55;8.57;;;;;;;4.02;100.00;102969.53;5040237;28;20045;-81
2022/01/14 07:31:28;;;;;;;19.35;8.48;;;;;;;4.04;100.00;102975.66;5042528;28;20745;-85
2022/01/14 07:33:54;;;;;;;16.38;7.28;;;;;;;4.02;100.00;102978.38;5044542;28;20108;-83
2022/01/14 07:36:19;;;;;;;21.27;9.32;;;;;;;3.98;100.00;102979.50;5037499;28;20502;-86
2022/01/14 07:38:47;;;;;;;18.85;7.63;;;;;;;3.95;100.00;102975.19;5029319;28;20037;-82
2022/01/14 07:41:13;;;;;;;19.65;7.05;;;;;;;4.03;100.00;102982.78;5017881;28;20036;-81
2022/01/14 07:43:39;;;;;;;19.65;7.97;;;;;;;4.09;100.00;102992.25;5028095;28;20387;-84
2022/01/14 07:46:05;;;;;;;16.52;7.30;;;;;;;4.12;100.00;102984.09;5028403;28;20042;-84
2022/01/14 07:48:31;;;;;;;13.10;6.65;;;;;;;4.00;100.00;102966.97;5062276;28;20035;-83
2022/01/14 07:50:57;;;;;;;20.80;7.95;;;;;;;4.09;100.00;102984.28;5035531;28;20036;-84
2022/01/14 07:53:23;;;;;;;17.60;7.88;;;;;;;4.09;100.00;102981.59;5043758;28;20033;-81
2022/01/14 07:55:49;;;;;;;16.88;7.25;;;;;;;4.13;100.00;102989.38;5030662;28;20094;-84
2022/01/14 07:58:15;;;;;;;17.60;7.25;;;;;;;4.06;100.00;102973.78;5045605;28;20032;-84
2022/01/14 08:00:41;;;;;;;17.90;7.78;;;;;;;4.11;100.00;102977.06;5042859;28;20074;-83
2022/01/14 08:03:07;;;;;;;16.30;6.00;;;;;;;3.91;100.00;102943.47;5010453;28;20997;-82
2022/01/14 08:05:33;;;;;;;14.82;6.60;;;;;;;4.06;100.00;102974.63;5024189;28;20047;-87
2022/01/14 08:08:04;;;;;;;17.40;6.80;;;;;;;4.02;100.00;102978.38;5039644;28;20052;-85
2022/01/14 08:10:31;;;;;;;17.33;6.72;;;;;;;4.09;100.00;102992.25;5049104;28;20389;-85
2022/01/14 08:12:56;;;;;;;15.98;6.65;;;;;;;3.97;100.00;102968.00;5031592;28;20147;-80
2022/01/14 08:15:23;;;;;;;12.48;5.75;;;;;;;4.11;100.00;102977.06;5019247;28;20123;-85
2022/01/14 08:17:49;;;;;;;15.18;6.10;;;;;;;3.84;100.00;102926.97;5044611;28;20032;-82
2022/01/14 08:20:15;;;;;;;13.70;5.95;;;;;;;4.23;100.00;102965.75;5030859;28;20052;-82
2022/01/14 08:22:40;;;;;;;16.33;6.60;;;;;;;4.38;100.00;102975.63;5024832;28;20032;-84
2022/01/14 08:25:09;;;;;;;23.38;7.63;;;;;;;4.38;100.00;102966.78;5023723;28;20029;-83
2022/01/14 08:27:35;;;;;;;17.83;6.80;;;;;;;4.34;100.00;102957.22;5039670;28;20039;-83
2022/01/14 08:30:01;;;;;;;23.25;8.50;;;;;;;4.48;100.00;102981.31;5039993;28;20107;-87
2022/01/14 08:32:27;;;;;;;22.23;9.30;;;;;;;4.44;100.00;102962.91;5027751;28;20126;-82
2022/01/14 08:34:52;;;;;;;15.60;7.07;;;;;;;4.51;100.00;102965.19;5022026;28;20038;-84
2022/01/14 08:37:18;;;;;;;19.50;9.05;;;;;;;4.53;100.00;102967.78;5028416;28;20037;-83
2022/01/14 08:39:44;;;;;;;37.63;14.90;;;;;;;4.53;100.00;102970.44;5016620;28;20041;-82
2022/01/14 08:42:11;;;;;;;22.23;9.70;;;;;;;4.48;100.00;102967.16;5010857;28;20052;-83
2022/01/14 08:44:37;;;;;;;17.70;8.02;;;;;;;4.53;100.00;102981.09;5062715;28;20490;-81
2022/01/14 08:47:07;;;;;;;14.32;8.00;;;;;;;4.52;100.00;102987.34;5031120;28;20109;-81
2022/01/14 08:49:34;;;;;;;19.35;7.63;;;;;;;4.51;100.00;102970.50;5047417;28;20410;-82
2022/01/14 08:51:59;;;;;;;17.42;8.93;;;;;;;4.55;100.00;102987.19;5029573;28;20029;-81
2022/01/14 08:54:25;;;;;;;33.72;13.95;;;;;;;4.48;100.00;102969.81;5026805;28;20142;-82
2022/01/14 08:56:50;;;;;;;60.50;22.65;;;;;;;4.59;100.00;102988.75;5025217;28;20048;-82
2022/01/14 08:59:17;;;;;;;27.58;10.38;;;;;;;4.51;100.00;102965.19;5008567;28;20543;-82
2022/01/14 09:01:43;;;;;;;17.08;7.32;;;;;;;4.50;100.00;102958.13;5040014;28;20056;-87
2022/01/14 09:04:09;;;;;;;11.65;5.95;;;;;;;4.59;100.00;102965.63;5022701;28;20040;-84
2022/01/14 09:06:34;;;;;;;12.25;5.70;;;;;;;4.54;100.00;102954.34;5025370;28;20029;-84
2022/01/14 09:09:00;;;;;;;9.98;6.30;;;;;;;4.58;100.00;102952.41;5043046;28;20497;-83
2022/01/14 09:11:26;;;;;;;14.20;6.50;;;;;;;4.61;100.00;102950.41;5033046;28;20024;-82
2022/01/14 09:13:52;;;;;;;12.38;6.50;;;;;;;4.63;100.00;102950.31;5052484;28;20132;-82
2022/01/14 09:16:20;;;;;;;17.90;6.25;;;;;;;4.61;100.00;102958.41;5003880;28;20036;-83
2022/01/14 09:18:47;;;;;;;16.17;5.88;;;;;;;4.46;100.00;102937.06;5034105;28;20028;-81
2022/01/14 09:21:13;;;;;;;15.93;5.47;;;;;;;4.53;100.00;102960.63;5017221;28;20028;-84
2022/01/14 09:23:39;;;;;;;13.32;5.93;;;;;;;4.52;100.00;102960.69;5030795;28;20044;-82
2022/01/14 09:26:04;;;;;;;10.40;5.00;;;;;;;4.50;100.00;102959.91;5014979;28;20366;-81
2022/01/14 09:28:31;;;;;;;11.15;5.18;;;;;;;4.51;100.00;102959.00;5029069;28;20052;-81
2022/01/14 09:30:57;;;;;;;14.73;5.90;;;;;;;4.49;100.00;102959.06;5037181;28;20072;-81
2022/01/14 09:33:24;;;;;;;15.73;5.78;;;;;;;4.56;100.00;102967.59;5053193;28;20054;-80
2022/01/14 09:35:50;;;;;;;12.00;5.72;;;;;;;4.58;100.00;102963.06;5036051;28;20404;-80
2022/01/14 09:38:16;;;;;;;9.90;4.95;;;;;;;4.48;100.00;102935.19;5051877;28;20060;-80
2022/01/14 09:40:44;;;;;;;9.07;5.05;;;;;;;4.59;100.00;102952.31;5049040;28;20103;-82
2022/01/14 09:43:14;;;;;;;11.05;5.97;;;;;;;4.66;100.00;102962.63;5033039;28;20095;-80
2022/01/14 09:45:40;;;;;;;17.13;6.55;;;;;;;4.64;100.00;102960.06;5030100;28;20169;-81
2022/01/14 09:48:06;;;;;;;14.57;6.53;;;;;;;4.66;100.00;102950.19;5053138;28;20048;-80
2022/01/14 09:50:32;;;;;;;9.35;5.32;;;;;;;4.73;100.00;102954.22;5035563;28;20481;-80
2022/01/14 09:52:57;;;;;;;10.80;6.78;;;;;;;4.76;100.00;102948.72;5049770;28;20801;-79
2022/01/14 09:55:26;;;;;;;11.82;5.60;;;;;;;4.79;100.00;102943.22;5034607;28;20039;-81
2022/01/14 09:57:54;;;;;;;14.98;5.88;;;;;;;4.87;100.00;102949.91;5036467;28;20266;-80
2022/01/14 10:00:21;;;;;;;14.23;6.60;;;;;;;4.89;100.00;102948.03;5020222;28;20036;-81
2022/01/14 10:02:49;;;;;;;11.82;5.05;;;;;;;4.94;100.00;102945.97;5018381;28;20128;-80
2022/01/14 10:05:38;;;;;;;12.70;6.40;;;;;;;5.01;100.00;102948.22;5034725;28;20094;-81
2022/01/14 10:08:25;;;;;;;18.95;6.15;;;;;;;5.02;100.00;102949.06;5049177;28;20039;-81
2022/01/14 10:10:58;;;;;;;10.63;5.60;;;;;;;5.04;100.00;102940.03;5020476;28;20036;-81
2022/01/14 10:13:31;;;;;;;11.48;5.93;;;;;;;5.13;100.00;102944.00;5017174;28;20398;-80
2022/01/14 10:16:16;;;;;;;14.70;6.45;;;;;;;5.21;100.00;102941.78;5058298;28;20032;-80
2022/01/14 10:18:49;;;;;;;21.33;7.00;;;;;;;5.32;100.00;102948.28;5019620;28;20462;-79
2022/01/14 10:21:14;;;;;;;11.93;6.20;;;;;;;5.37;100.00;102946.22;5035313;28;20378;-80
2022/01/14 10:23:47;;;;;;;9.80;6.03;;;;;;;5.40;100.00;102943.34;5036245;28;20033;-80
2022/01/14 10:26:14;;;;;;;13.60;6.97;;;;;;;5.47;100.00;102942.91;5019367;28;20042;-80
2022/01/14 10:28:44;;;;;;;11.18;6.35;;;;;;;5.55;100.00;102949.63;5070173;28;20040;-80
2022/01/14 10:31:09;;;;;;;8.23;5.03;;;;;;;5.58;100.00;102934.28;5040360;28;20110;-80
2022/01/14 10:33:35;;;;;;;13.43;6.15;;;;;;;5.52;100.00;102929.31;5040819;28;20083;-82
2022/01/14 10:36:01;;;;;;;9.75;5.15;;;;;;;5.63;100.00;102945.56;5024782;28;20045;-80
2022/01/14 10:38:37;;;;;;;9.77;4.63;;;;;;;5.50;100.00;102920.53;5020159;28;20025;-79
2022/01/14 10:41:07;;;;;;;11.82;5.30;;;;;;;5.64;100.00;102933.09;5029494;28;20041;-80
2022/01/14 10:43:35;;;;;;;12.60;4.97;;;;;;;5.65;100.00;102935.66;5055542;28;20086;-80
2022/01/14 10:46:05;;;;;;;6.25;3.88;;;;;;;5.67;100.00;102927.56;5051282;28;20033;-80
2022/01/14 10:48:33;;;;;;;9.13;6.63;;;;;;;5.73;100.00;102928.06;5019778;28;20120;-80
2022/01/14 10:51:10;;;;;;;10.73;5.63;;;;;;;5.77;100.00;102936.75;5013037;28;20041;-83
2022/01/14 10:53:44;;;;;;;10.23;5.10;;;;;;;5.81;100.00;102937.41;5030325;28;20068;-83
2022/01/14 10:56:14;;;;;;;15.07;6.50;;;;;;;5.81;100.00;102930.25;5019485;28;20040;-85
2022/01/14 10:58:45;;;;;;;7.65;4.40;;;;;;;5.90;100.00;102931.50;5046177;28;20078;-84
2022/01/14 11:01:17;;;;;;;10.10;5.03;;;;;;;5.96;100.00;102915.19;5070015;28;20029;-80
2022/01/14 11:03:56;;;;;;;10.38;5.72;;;;;;;5.93;100.00;102889.53;5038840;28;20052;-80
2022/01/14 11:06:38;;;;;;;12.55;5.35;;;;;;;6.08;100.00;102906.41;5030907;28;22035;-81
2022/01/14 11:09:12;;;;;;;11.25;4.57;;;;;;;6.20;100.00;102919.97;5040083;28;20041;-80
2022/01/14 11:11:43;;;;;;;13.18;5.47;;;;;;;6.15;100.00;102915.78;5069736;28;20052;-84
2022/01/14 11:14:09;;;;;;;11.38;4.32;;;;;;;6.12;100.00;102932.00;5051750;28;20036;-86
2022/01/14 11:16:35;;;;;;;6.47;3.35;;;;;;;6.06;100.00;102929.69;5044433;28;20117;-78
2022/01/14 11:19:03;;;;;;;9.02;5.20;;;;;;;5.85;100.00;102898.94;5020421;28;20089;-79
2022/01/14 11:24:25;;;;;;;10.80;5.15;;;;;;;5.95;100.00;102921.44;5035671;28;20115;-77
2022/01/14 11:26:53;;;;;;;7.35;3.42;;;;;;;5.83;100.00;102915.03;5053684;28;20028;-82
2022/01/14 11:29:21;;;;;;;9.23;5.00;;;;;;;5.83;100.00;102908.84;5049002;28;20029;-81
2022/01/14 11:31:56;;;;;;;8.15;4.80;;;;;;;5.91;100.00;102923.44;5039662;28;20625;-85
2022/01/14 11:34:34;;;;;;;11.55;4.97;;;;;;;5.91;100.00;102914.56;5049619;28;20028;-78
2022/01/14 11:37:06;;;;;;;10.13;5.20;;;;;;;5.90;100.00;102910.16;5028120;28;20038;-84
2022/01/14 11:39:36;;;;;;;20.50;6.20;;;;;;;5.99;100.00;102903.47;5030345;28;20043;-82
2022/01/14 11:42:14;;;;;;;10.38;5.40;;;;;;;6.01;100.00;102902.41;5064777;28;20067;-77
2022/01/14 11:45:06;;;;;;;12.77;5.82;;;;;;;6.02;100.00;102901.44;5045764;28;20077;-80
2022/01/14 11:47:50;;;;;;;8.88;5.38;;;;;;;5.99;100.00;102874.09;5047187;28;20036;-80
2022/01/14 11:50:18;;;;;;;10.30;6.07;;;;;;;6.20;100.00;102891.44;5031387;28;20045;-87